createdAt,value
2018-11-23T00:01:51.496Z,17.15
2018-11-23T00:04:32.769Z,16.67
2018-11-23T00:07:14.036Z,9.60
2018-11-23T00:09:55.696Z,13.40
2018-11-23T00:12:37.083Z,9.73
2018-11-23T00:15:18.925Z,6.42
2018-11-23T00:18:00.145Z,13.55
2018-11-23T00:20:41.457Z,19.55
2018-11-23T00:23:22.687Z,16.12
2018-11-23T00:26:03.204Z,11.45
2018-11-23T00:28:44.268Z,8.75
2018-11-23T00:31:25.404Z,7.65
2018-11-23T00:34:06.669Z,23.32
2018-11-23T00:36:47.516Z,21.30
2018-11-23T00:39:28.555Z,9.85
2018-11-23T00:42:09.780Z,6.53
2018-11-23T00:44:50.472Z,14.28
2018-11-23T00:47:31.169Z,10.32
2018-11-23T00:50:12.266Z,7.35
2018-11-23T00:52:53.990Z,9.53
2018-11-23T00:55:35.320Z,5.92
2018-11-23T00:58:16.828Z,17.35
2018-11-23T01:00:57.494Z,7.90
2018-11-23T01:03:38.352Z,14.15
2018-11-23T01:06:19.810Z,8.25
2018-11-23T01:09:01.062Z,8.83
2018-11-23T01:11:42.229Z,13.50
2018-11-23T01:14:23.278Z,14.70
2018-11-23T01:17:04.352Z,9.45
2018-11-23T01:19:45.037Z,5.83
2018-11-23T01:22:26.001Z,8.93
2018-11-23T01:25:07.483Z,8.95
2018-11-23T01:27:49.869Z,12.75
2018-11-23T01:30:31.797Z,21.23
2018-11-23T01:33:13.019Z,7.90
2018-11-23T01:35:53.864Z,9.43
2018-11-23T01:38:35.116Z,9.15
2018-11-23T01:41:15.867Z,9.33
2018-11-23T01:43:56.753Z,11.65
2018-11-23T01:46:37.725Z,7.67
2018-11-23T01:49:19.050Z,12.80
2018-11-23T01:51:59.912Z,9.63
2018-11-23T01:54:41.242Z,7.85
2018-11-23T01:57:22.338Z,13.43
2018-11-23T02:00:03.765Z,12.10
2018-11-23T02:02:44.699Z,7.83
2018-11-23T02:05:25.489Z,5.50
2018-11-23T02:08:06.578Z,9.28
2018-11-23T02:10:47.353Z,17.82
2018-11-23T02:13:28.425Z,9.25
2018-11-23T02:16:09.472Z,13.95
2018-11-23T02:18:50.312Z,7.08
2018-11-23T02:21:31.451Z,24.70
2018-11-23T02:24:12.675Z,14.00
2018-11-23T02:26:53.532Z,5.45
2018-11-23T02:29:34.340Z,6.12
2018-11-23T02:32:15.666Z,13.75
2018-11-23T02:34:56.529Z,13.90
2018-11-23T02:37:38.085Z,6.20
2018-11-23T02:40:20.051Z,9.73
2018-11-23T02:43:01.509Z,8.83
2018-11-23T02:45:43.013Z,12.33
2018-11-23T02:48:24.487Z,9.75
2018-11-23T02:51:05.570Z,16.42
2018-11-23T02:53:46.216Z,10.50
2018-11-23T02:56:27.170Z,13.88
2018-11-23T02:59:08.134Z,10.65
2018-11-23T03:01:48.917Z,5.92
2018-11-23T03:04:29.448Z,8.20
2018-11-23T03:07:10.626Z,20.40
2018-11-23T03:09:51.669Z,6.92
2018-11-23T03:12:32.540Z,7.83
2018-11-23T03:15:14.017Z,7.85
2018-11-23T03:17:55.338Z,12.65
2018-11-23T03:20:36.358Z,5.25
2018-11-23T03:23:17.697Z,9.90
2018-11-23T03:25:58.837Z,12.05
2018-11-23T03:28:39.958Z,10.90
2018-11-23T03:31:20.674Z,11.38
2018-11-23T03:34:02.079Z,4.37
2018-11-23T03:36:43.208Z,11.35
2018-11-23T03:39:24.281Z,11.33
2018-11-23T03:42:05.462Z,14.73
2018-11-23T03:44:46.909Z,7.67
2018-11-23T03:47:28.369Z,13.03
2018-11-23T03:50:10.294Z,10.55
2018-11-23T03:52:50.826Z,8.33
2018-11-23T03:55:31.952Z,6.58
2018-11-23T03:58:11.456Z,6.42
2018-11-23T04:01:00.058Z,9.18
2018-11-23T04:03:48.695Z,6.47
2018-11-23T04:06:37.057Z,12.68
2018-11-23T04:09:44.473Z,7.53
2018-11-23T04:12:32.813Z,9.73
2018-11-23T04:15:21.155Z,5.90
2018-11-23T04:18:09.781Z,11.65
2018-11-23T04:21:00.148Z,6.72
2018-11-23T04:23:48.490Z,22.52
2018-11-23T04:26:36.853Z,15.32
2018-11-23T04:29:25.188Z,11.73
2018-11-23T04:32:13.840Z,9.25
2018-11-23T04:35:02.186Z,27.45
2018-11-23T04:37:50.899Z,9.00
2018-11-23T04:40:39.531Z,7.72
2018-11-23T04:43:28.192Z,9.43
2018-11-23T04:46:16.859Z,7.40
2018-11-23T04:49:05.416Z,8.75
2018-11-23T04:51:54.121Z,14.68
2018-11-23T04:54:43.072Z,5.72
2018-11-23T04:57:31.419Z,9.33
2018-11-23T05:00:19.779Z,16.07
2018-11-23T05:03:08.468Z,6.25
2018-11-23T05:05:56.827Z,8.70
2018-11-23T05:08:45.169Z,7.55
2018-11-23T05:11:33.551Z,7.67
2018-11-23T05:17:30.041Z,4.95
2018-11-23T05:20:18.707Z,7.83
2018-11-23T05:23:07.049Z,9.50
2018-11-23T05:25:55.397Z,8.85
2018-11-23T05:28:43.739Z,7.25
2018-11-23T05:31:32.077Z,10.38
2018-11-23T05:34:21.256Z,7.60
2018-11-23T05:37:09.620Z,10.75
2018-11-23T05:39:57.972Z,10.03
2018-11-23T05:42:46.634Z,8.10
2018-11-23T05:45:34.965Z,13.35
2018-11-23T05:48:26.979Z,11.57
2018-11-23T05:51:12.198Z,5.78
2018-11-23T05:54:00.923Z,8.80
2018-11-23T05:56:49.268Z,9.53
2018-11-23T05:59:37.616Z,9.95
2018-11-23T06:02:25.973Z,11.60
2018-11-23T06:05:14.363Z,6.80
2018-11-23T06:08:03.032Z,8.33
2018-11-23T06:10:51.696Z,7.72
2018-11-23T06:13:40.343Z,4.85
2018-11-23T06:16:28.682Z,11.03
2018-11-23T06:19:18.032Z,7.33
2018-11-23T06:22:06.380Z,13.03
2018-11-23T06:24:54.729Z,14.63
2018-11-23T06:27:43.093Z,11.45
2018-11-23T06:30:31.458Z,11.15
2018-11-23T06:33:40.182Z,14.70
2018-11-23T06:36:28.517Z,5.87
2018-11-23T06:39:17.235Z,16.70
2018-11-23T06:42:06.202Z,17.02
2018-11-23T06:44:54.554Z,13.62
2018-11-23T06:47:44.014Z,12.33
2018-11-23T06:50:32.715Z,9.95
2018-11-23T06:53:21.063Z,7.05
2018-11-23T06:56:09.418Z,8.00
2018-11-23T06:58:50.944Z,6.15
2018-11-23T07:01:32.167Z,10.20
2018-11-23T07:04:13.245Z,11.90
2018-11-23T07:06:54.198Z,11.70
2018-11-23T07:09:35.201Z,9.75
2018-11-23T07:12:16.453Z,12.63
2018-11-23T07:14:56.970Z,11.60
2018-11-23T07:17:38.010Z,8.10
2018-11-23T07:20:19.656Z,9.93
2018-11-23T07:23:00.530Z,19.52
2018-11-23T07:25:41.357Z,10.08
2018-11-23T07:28:22.336Z,14.75
2018-11-23T07:31:02.930Z,12.68
2018-11-23T07:33:43.834Z,17.82
2018-11-23T07:36:24.272Z,7.53
2018-11-23T07:39:05.626Z,7.50
2018-11-23T07:41:46.990Z,9.13
2018-11-23T07:44:28.281Z,11.73
2018-11-23T07:47:09.418Z,7.20
2018-11-23T07:49:50.536Z,6.47
2018-11-23T07:52:31.251Z,8.00
2018-11-23T07:55:12.737Z,17.85
2018-11-23T07:57:54.058Z,17.80
2018-11-23T08:00:35.020Z,15.13
2018-11-23T08:03:16.180Z,22.62
2018-11-23T08:05:57.041Z,13.13
2018-11-23T08:08:37.958Z,14.55
2018-11-23T08:11:19.296Z,19.20
2018-11-23T08:14:00.249Z,16.00
2018-11-23T08:16:41.166Z,20.55
2018-11-23T08:19:22.001Z,16.12
2018-11-23T08:22:03.268Z,15.75
2018-11-23T08:24:44.437Z,24.60
2018-11-23T08:27:25.193Z,22.02
2018-11-23T08:30:06.011Z,17.27
2018-11-23T08:32:47.305Z,25.90
2018-11-23T08:35:29.033Z,32.10
2018-11-23T08:38:09.709Z,25.02
2018-11-23T08:40:50.475Z,15.68
2018-11-23T08:43:31.274Z,18.48
2018-11-23T08:46:12.653Z,23.73
2018-11-23T08:48:53.645Z,28.85
2018-11-23T08:51:34.739Z,25.77
2018-11-23T08:54:15.913Z,26.45
2018-11-23T08:56:56.882Z,23.85
2018-11-23T08:59:38.015Z,25.23
2018-11-23T09:02:18.828Z,23.25
2018-11-23T09:05:00.223Z,29.05
2018-11-23T09:07:41.354Z,25.68
2018-11-23T09:10:22.915Z,22.48
2018-11-23T09:13:03.867Z,25.30
2018-11-23T09:15:45.200Z,26.55
2018-11-23T09:18:25.746Z,29.25
2018-11-23T09:21:06.383Z,28.17
2018-11-23T09:23:47.759Z,23.52
2018-11-23T09:26:29.131Z,26.70
2018-11-23T09:29:10.427Z,24.25
2018-11-23T09:31:50.964Z,27.30
2018-11-23T09:34:32.726Z,26.50
2018-11-23T09:37:13.674Z,26.77
2018-11-23T09:39:54.818Z,26.62
2018-11-23T09:42:36.035Z,24.05
2018-11-23T09:45:37.017Z,23.20
2018-11-23T09:48:18.180Z,22.98
2018-11-23T09:50:59.427Z,21.77
2018-11-23T09:53:41.577Z,21.73
2018-11-23T09:56:22.622Z,25.65
2018-11-23T09:59:03.402Z,28.15
2018-11-23T10:01:44.464Z,25.10
2018-11-23T10:04:25.858Z,25.15
2018-11-23T10:07:07.079Z,28.77
2018-11-23T10:09:48.044Z,24.15
2018-11-23T10:12:28.866Z,24.10
2018-11-23T10:15:10.737Z,26.90
2018-11-23T10:17:51.662Z,27.22
2018-11-23T10:20:33.838Z,25.02
2018-11-23T10:23:15.303Z,23.87
2018-11-23T10:25:56.699Z,24.43
2018-11-23T10:28:37.618Z,23.55
2018-11-23T10:31:18.788Z,23.12
2018-11-23T10:33:59.950Z,25.68
2018-11-23T10:36:41.374Z,25.85
2018-11-23T10:39:22.473Z,21.48
2018-11-23T10:42:03.991Z,26.65
2018-11-23T10:44:45.167Z,29.42
2018-11-23T10:47:26.343Z,23.57
2018-11-23T10:50:07.611Z,20.55
2018-11-23T10:52:48.357Z,20.92
2018-11-23T10:55:33.375Z,26.12
2018-11-23T10:58:14.849Z,26.42
2018-11-23T11:04:21.703Z,21.50
2018-11-23T11:07:06.852Z,29.80
2018-11-23T11:09:48.153Z,24.00
2018-11-23T11:12:28.904Z,22.50
2018-11-23T11:15:10.171Z,25.62
2018-11-23T11:17:50.663Z,24.35
2018-11-23T11:20:31.530Z,21.85
2018-11-23T11:23:12.898Z,17.35
2018-11-23T11:25:54.287Z,18.85
2018-11-23T11:28:35.202Z,17.20
2018-11-23T11:31:16.906Z,20.40
2018-11-23T11:33:58.273Z,20.52
2018-11-23T11:36:39.398Z,20.90
2018-11-23T11:39:20.631Z,18.40
2018-11-23T11:42:01.815Z,19.73
2018-11-23T11:44:43.054Z,17.25
2018-11-23T11:47:24.217Z,17.87
2018-11-23T11:50:06.661Z,17.55
2018-11-23T11:52:48.219Z,14.98
2018-11-23T11:55:29.138Z,23.47
2018-11-23T11:58:10.493Z,19.17
2018-11-23T12:00:51.649Z,19.60
2018-11-23T12:03:32.705Z,15.08
2018-11-23T12:06:13.716Z,16.75
2018-11-23T12:08:54.584Z,16.35
2018-11-23T12:11:35.508Z,14.73
2018-11-23T12:14:16.754Z,15.53
2018-11-23T12:16:57.943Z,16.10
2018-11-23T12:19:38.977Z,17.40
2018-11-23T12:22:20.392Z,10.85
2018-11-23T12:25:01.604Z,15.13
2018-11-23T12:27:42.137Z,15.05
2018-11-23T12:30:23.279Z,15.00
2018-11-23T12:33:04.300Z,15.78
2018-11-23T12:35:45.426Z,15.72
2018-11-23T12:38:26.031Z,12.82
2018-11-23T12:41:06.734Z,18.50
2018-11-23T12:43:47.678Z,14.43
2018-11-23T12:46:28.872Z,16.05
2018-11-23T12:49:10.126Z,15.60
2018-11-23T12:51:51.106Z,14.20
2018-11-23T12:54:31.990Z,12.68
2018-11-23T12:57:13.286Z,16.62
2018-11-23T12:59:54.589Z,13.43
2018-11-23T13:02:35.872Z,19.05
2018-11-23T13:05:16.821Z,14.50
2018-11-23T13:07:58.886Z,13.88
2018-11-23T13:10:39.957Z,15.98
2018-11-23T13:13:21.174Z,15.03
2018-11-23T13:16:02.153Z,16.32
2018-11-23T13:18:43.189Z,16.32
2018-11-23T13:21:24.760Z,15.40
2018-11-23T13:24:05.960Z,15.80
2018-11-23T13:26:46.771Z,13.78
2018-11-23T13:29:27.698Z,13.28
2018-11-23T13:32:08.707Z,14.00
2018-11-23T13:34:49.778Z,12.95
2018-11-23T13:37:30.743Z,11.95
2018-11-23T13:40:12.817Z,15.00
2018-11-23T13:42:54.930Z,11.35
2018-11-23T13:45:35.935Z,14.78
2018-11-23T13:48:20.003Z,13.38
2018-11-23T13:50:57.983Z,16.57
2018-11-23T13:53:39.289Z,13.40
2018-11-23T13:56:20.190Z,13.25
2018-11-23T13:59:01.301Z,12.53
2018-11-23T14:01:42.654Z,10.18
2018-11-23T14:04:23.717Z,14.20
2018-11-23T14:07:04.954Z,10.72
2018-11-23T14:09:46.109Z,13.55
2018-11-23T14:12:27.437Z,15.50
2018-11-23T14:15:08.710Z,14.13
2018-11-23T14:17:50.519Z,21.33
2018-11-23T14:20:31.317Z,13.38
2018-11-23T14:23:12.844Z,15.63
2018-11-23T14:25:54.892Z,16.10
2018-11-23T14:28:35.409Z,12.70
2018-11-23T14:31:15.916Z,10.88
2018-11-23T14:33:56.844Z,14.53
2018-11-23T14:36:37.696Z,17.32
2018-11-23T14:39:18.256Z,10.08
2018-11-23T14:41:59.148Z,10.70
2018-11-23T14:44:40.097Z,10.50
2018-11-23T14:47:21.370Z,16.40
2018-11-23T14:50:02.251Z,15.65
2018-11-23T14:52:44.217Z,16.75
2018-11-23T14:55:25.434Z,13.75
2018-11-23T14:58:06.585Z,11.05
2018-11-23T15:00:47.540Z,12.45
2018-11-23T15:03:28.918Z,11.33
2018-11-23T15:06:08.401Z,24.43
2018-11-23T15:12:04.547Z,15.25
2018-11-23T15:14:52.856Z,19.55
2018-11-23T15:17:41.399Z,10.50
2018-11-23T15:20:30.839Z,13.48
2018-11-23T15:23:19.864Z,11.68
2018-11-23T15:26:08.180Z,15.95
2018-11-23T15:28:56.824Z,11.88
2018-11-23T15:31:45.516Z,16.02
2018-11-23T15:34:34.172Z,23.05
2018-11-23T15:37:22.500Z,17.75
2018-11-23T15:40:30.636Z,12.30
2018-11-23T15:43:19.917Z,15.83
2018-11-23T15:46:08.255Z,9.68
2018-11-23T15:48:56.574Z,18.25
2018-11-23T15:51:44.905Z,13.78
2018-11-23T15:54:33.241Z,18.37
2018-11-23T15:57:21.556Z,26.65
2018-11-23T16:00:11.612Z,13.20
2018-11-23T16:02:59.921Z,15.90
2018-11-23T16:05:48.218Z,9.50
2018-11-23T16:08:36.512Z,11.85
2018-11-23T16:11:24.845Z,12.93
2018-11-23T16:14:32.220Z,15.53
2018-11-23T16:17:20.940Z,9.35
2018-11-23T16:20:10.621Z,15.40
2018-11-23T16:23:00.449Z,20.08
2018-11-23T16:25:49.391Z,11.93
2018-11-23T16:28:37.717Z,15.68
2018-11-23T16:31:26.351Z,10.55
2018-11-23T16:34:14.650Z,12.18
2018-11-23T16:37:02.982Z,14.30
2018-11-23T16:39:51.312Z,11.40
2018-11-23T16:42:40.188Z,13.72
2018-11-23T16:45:29.886Z,19.50
2018-11-23T16:48:19.031Z,13.95
2018-11-23T16:51:07.336Z,14.98
2018-11-23T16:53:55.632Z,14.18
2018-11-23T16:57:02.772Z,19.70
2018-11-23T16:59:51.379Z,16.20
2018-11-23T17:02:40.536Z,20.75
2018-11-23T17:05:30.312Z,27.00
2018-11-23T17:08:18.656Z,20.02
2018-11-23T17:11:06.965Z,22.48
2018-11-23T17:13:55.521Z,18.70
2018-11-23T17:16:43.847Z,20.52
2018-11-23T17:19:32.164Z,13.32
2018-11-23T17:22:20.756Z,18.12
2018-11-23T17:25:10.090Z,14.03
2018-11-23T17:27:59.688Z,27.70
2018-11-23T17:30:48.000Z,16.05
2018-11-23T17:33:36.632Z,13.62
2018-11-23T17:36:24.937Z,11.43
2018-11-23T17:39:05.447Z,18.70
2018-11-23T17:41:46.478Z,20.72
2018-11-23T17:44:27.543Z,9.50
2018-11-23T17:47:08.706Z,19.80
2018-11-23T17:49:49.806Z,13.95
2018-11-23T17:52:31.288Z,18.45
2018-11-23T17:55:12.576Z,18.90
2018-11-23T17:57:54.774Z,20.70
2018-11-23T18:00:39.352Z,23.85
2018-11-23T18:03:17.041Z,20.55
2018-11-23T18:05:57.971Z,12.98
2018-11-23T18:08:39.174Z,13.98
2018-11-23T18:11:20.173Z,17.67
2018-11-23T18:14:00.945Z,14.35
2018-11-23T18:16:41.613Z,17.87
2018-11-23T18:19:22.635Z,18.67
2018-11-23T18:22:03.536Z,16.45
2018-11-23T18:24:45.235Z,13.20
2018-11-23T18:27:25.861Z,14.87
2018-11-23T18:30:06.828Z,17.82
2018-11-23T18:32:47.933Z,14.03
2018-11-23T18:35:28.840Z,17.85
2018-11-23T18:38:09.859Z,15.55
2018-11-23T18:41:19.148Z,18.95
2018-11-23T18:43:47.177Z,28.42
2018-11-23T18:46:15.216Z,14.75
2018-11-23T18:48:43.244Z,9.45
2018-11-23T18:51:11.289Z,16.52
2018-11-23T18:53:39.333Z,13.00
2018-11-23T18:56:07.399Z,28.23
2018-11-23T18:58:35.448Z,23.20
2018-11-23T19:01:03.493Z,26.93
2018-11-23T19:03:31.533Z,19.95
2018-11-23T19:05:59.573Z,35.25
2018-11-23T19:08:27.613Z,14.30
2018-11-23T19:10:55.668Z,18.20
2018-11-23T19:13:23.709Z,26.85
2018-11-23T19:15:51.749Z,25.52
2018-11-23T19:18:19.796Z,16.02
2018-11-23T19:20:47.832Z,17.57
2018-11-23T19:23:15.884Z,23.45
2018-11-23T19:25:43.919Z,19.40
2018-11-23T19:28:11.965Z,15.40
2018-11-23T19:30:40.012Z,18.50
2018-11-23T19:33:08.046Z,21.82
2018-11-23T19:35:36.085Z,31.20
2018-11-23T19:38:04.130Z,16.45
2018-11-23T19:40:32.161Z,20.77
2018-11-23T19:43:00.205Z,21.23
2018-11-23T19:45:28.238Z,20.15
2018-11-23T19:47:56.281Z,15.00
2018-11-23T19:50:24.315Z,21.85
2018-11-23T19:52:52.360Z,22.45
2018-11-23T19:55:20.392Z,17.20
2018-11-23T19:57:48.536Z,16.65
2018-11-23T20:00:23.656Z,18.80
2018-11-23T20:02:51.722Z,29.77
2018-11-23T20:05:19.777Z,16.93
2018-11-23T20:07:49.148Z,18.05
2018-11-23T20:10:18.040Z,13.20
2018-11-23T20:12:46.957Z,22.58
2018-11-23T20:15:16.269Z,15.35
2018-11-23T20:17:44.356Z,13.68
2018-11-23T20:20:14.476Z,12.70
2018-11-23T20:22:42.744Z,14.55
2018-11-23T20:25:13.719Z,27.20
2018-11-23T20:27:41.766Z,22.62
2018-11-23T20:30:12.045Z,14.25
2018-11-23T20:32:40.221Z,25.43
2018-11-23T20:35:09.751Z,22.40
2018-11-23T20:37:37.798Z,16.75
2018-11-23T20:40:10.420Z,23.92
2018-11-23T20:42:38.629Z,25.27
2018-11-23T20:45:08.443Z,19.60
2018-11-23T20:47:36.697Z,31.80
2018-11-23T20:50:06.449Z,22.65
2018-11-23T20:52:34.497Z,18.70
2018-11-23T20:55:02.676Z,20.08
2018-11-23T20:57:30.714Z,24.72
2018-11-23T20:59:58.869Z,17.25
2018-11-23T21:02:26.894Z,22.32
2018-11-23T21:04:54.912Z,21.77
2018-11-23T21:07:22.941Z,24.80
2018-11-23T21:09:51.182Z,34.65
2018-11-23T21:12:19.205Z,31.00
2018-11-23T21:14:47.231Z,22.20
2018-11-23T21:17:15.261Z,25.12
2018-11-23T21:19:43.276Z,24.45
2018-11-23T21:22:11.311Z,20.60
2018-11-23T21:24:39.328Z,21.25
2018-11-23T21:27:07.444Z,18.02
2018-11-23T21:29:35.457Z,17.45
2018-11-23T21:32:03.505Z,22.50
2018-11-23T21:34:31.529Z,14.50
2018-11-23T21:36:59.553Z,27.67
2018-11-23T21:39:27.581Z,22.73
2018-11-23T21:41:55.593Z,22.52
2018-11-23T21:44:23.617Z,27.55
2018-11-23T21:46:51.645Z,22.10
2018-11-23T21:49:19.676Z,19.52
2018-11-23T21:51:47.684Z,15.65
2018-11-23T21:54:15.721Z,10.55
2018-11-23T21:56:43.756Z,19.00
2018-11-23T21:59:11.805Z,17.42
2018-11-23T22:01:39.829Z,11.68
2018-11-23T22:04:07.849Z,15.83
2018-11-23T22:06:35.881Z,23.55
2018-11-23T22:09:05.989Z,14.35
2018-11-23T22:11:34.008Z,19.73
2018-11-23T22:14:02.041Z,18.67
2018-11-23T22:16:30.088Z,14.95
2018-11-23T22:18:58.108Z,15.45
2018-11-23T22:21:26.121Z,18.42
2018-11-23T22:23:57.091Z,17.77
2018-11-23T22:26:22.164Z,17.20
2018-11-23T22:28:50.189Z,12.40
2018-11-23T22:31:18.204Z,24.90
2018-11-23T22:33:46.279Z,17.77
2018-11-23T22:36:14.289Z,20.37
2018-11-23T22:38:42.315Z,17.60
2018-11-23T22:41:10.335Z,20.15
2018-11-23T22:43:38.353Z,22.85
2018-11-23T22:46:06.383Z,16.60
2018-11-23T22:48:34.388Z,8.73
2018-11-23T22:51:02.417Z,16.42
2018-11-23T22:53:30.428Z,19.92
2018-11-23T22:55:58.456Z,20.00
2018-11-23T22:58:26.477Z,19.95
2018-11-23T23:01:00.054Z,9.55
2018-11-23T23:03:28.049Z,20.10
2018-11-23T23:05:56.081Z,23.00
2018-11-23T23:08:24.105Z,17.67
2018-11-23T23:10:52.133Z,14.33
2018-11-23T23:13:20.154Z,22.15
2018-11-23T23:15:48.186Z,12.13
2018-11-23T23:18:16.202Z,15.88
2018-11-23T23:20:44.228Z,14.30
2018-11-23T23:23:12.239Z,22.42
2018-11-23T23:25:40.272Z,23.25
2018-11-23T23:28:08.297Z,24.80
2018-11-23T23:30:37.437Z,16.30
2018-11-23T23:33:04.336Z,26.42
2018-11-23T23:35:32.373Z,16.52
2018-11-23T23:38:00.377Z,21.80
2018-11-23T23:40:28.409Z,17.92
2018-11-23T23:42:56.433Z,18.67
2018-11-23T23:45:24.457Z,16.90
2018-11-23T23:47:52.482Z,21.65
2018-11-23T23:50:21.251Z,15.60
2018-11-23T23:52:49.952Z,17.52
2018-11-23T23:55:17.967Z,26.17
2018-11-23T23:57:46.637Z,16.97
